KBCE

Bryce Canyon Airport

Bryce Canyon, Utah, USA
METAR KBCE 201453Z AUTO 26006KT 10SM CLR M19/M21 A2985 RMK AO2 SLP168 I3000 T11891206 53018
Observed Flight Rules
Feb-20 @ 14:53 UTC (2 hours ago) Visual Flight Rules
Wind Visibility Clouds
260° at 6 knots 10 miles
  • Clear skies
Temperatures Readings
Current -19°C / -2°F
Dewpoint -21°C / -6°F
Humidity 84%
Altimeter 29.85" Hg
Pressure 1016.8 hPa
Elevation 2312
METAR KBCE 201453Z AUTO 26006KT 10SM CLR M19/M21 A2985 RMK AO2 SLP168 I3000 T11891206 53018
Observed Flight Rules
Feb-20 @ 14:53 UTC
(2 hours ago)
VFR
Wind Visibility
260° at 6 knots 10 miles
Clouds
  • Clear skies
Temperature Dewpoint
-19°C / -2°F -21°C / -6°F
Humidity Altimeter Pressure
84% 29.85" Hg 1016.8 hPa